Anna-meta — A8XN3 — position and weather

sailwx.info

Track history (hours):
 
Tides and Currents Weather Stations Pressure Air Temp Water Temp Dewpoint Dewpoint Depression Visibility Wind Speed Wind Dir Waves Ship Positions

Anna-meta

Last reported at 2014-Jul-22 00:32 UTC. Time now 2014-Jul-31 13:33 UTC.
Position N 37°14' W 001°07'.
Warning: this ship's position is 9 days out of date.

Length 190 m; draft 6.2 m.

Type: Cargo ship. MMSI: 636092143.

Date/timePositionNaut miles runAvg speedWind from/ knotsBaromVisibWave heightAir tempDewpointWater temp
2014-Jul-22 00:32N 37°14' W 001°07'1413.9
2014-Jul-21 23:32N 37°22' W 000°53'1613.1
2014-Jul-21 22:20N 37°32' W 000°38'1113.3
2014-Jul-21 21:29N 37°41' W 000°28'  
2014-Jul-19 12:25N 39°58' E 000°02'  
2014-Jul-16 07:30N 39°33' E 001°38'1111.8
2014-Jul-16 06:33N 39°31' E 001°52'1211.7
2014-Jul-16 05:33N 39°26' E 002°06'1212.1
2014-Jul-16 04:33N 39°19' E 002°18'1211.9
2014-Jul-16 03:33N 39°12' E 002°31'1212.0
2014-Jul-16 02:33N 39°05' E 002°43'1212.0
2014-Jul-16 01:33N 38°58' E 002°56'1312.9
2014-Jul-16 00:33N 38°55' E 003°12'1211.4
2014-Jul-15 23:31N 38°53' E 003°27'1312.0
2014-Jul-15 22:27N 38°50' E 003°43'  
2014-Jul-12 05:33N 36°17' E 024°15'1111.4
2014-Jul-12 04:33N 36°21' E 024°28'1111.4
2014-Jul-12 03:33N 36°24' E 024°42'1111.1
2014-Jul-12 02:33N 36°27' E 024°55'1111.5
2014-Jul-12 01:33N 36°30' E 025°09'1010.4
2014-Jul-12 00:33N 36°34' E 025°21'  
Track history (hours):
 
Tides and Currents Weather Stations Pressure Air Temp Water Temp Dewpoint Dewpoint Depression Visibility Wind Speed Wind Dir Waves Ship Positions

Anna-meta

Last reported at 2014-Jul-22 00:32 UTC. Time now 2014-Jul-31 13:33 UTC.
Position N 37°14' W 001°07'.
Warning: this ship's position is 9 days out of date.

Length 190 m; draft 6.2 m.

Type: Cargo ship. MMSI: 636092143.

Date/timePositionNaut miles runAvg speedWind from/ knotsBaromVisibWave heightAir tempDewpointWater temp
2014-Jul-22 00:32N 37°14' W 001°07'1413.9
2014-Jul-21 23:32N 37°22' W 000°53'1613.1
2014-Jul-21 22:20N 37°32' W 000°38'1113.3
2014-Jul-21 21:29N 37°41' W 000°28'  
2014-Jul-19 12:25N 39°58' E 000°02'  
2014-Jul-16 07:30N 39°33' E 001°38'1111.8
2014-Jul-16 06:33N 39°31' E 001°52'1211.7
2014-Jul-16 05:33N 39°26' E 002°06'1212.1
2014-Jul-16 04:33N 39°19' E 002°18'1211.9
2014-Jul-16 03:33N 39°12' E 002°31'1212.0
2014-Jul-16 02:33N 39°05' E 002°43'1212.0
2014-Jul-16 01:33N 38°58' E 002°56'1312.9
2014-Jul-16 00:33N 38°55' E 003°12'1211.4
2014-Jul-15 23:31N 38°53' E 003°27'1312.0
2014-Jul-15 22:27N 38°50' E 003°43'  
2014-Jul-12 05:33N 36°17' E 024°15'1111.4
2014-Jul-12 04:33N 36°21' E 024°28'1111.4
2014-Jul-12 03:33N 36°24' E 024°42'1111.1
2014-Jul-12 02:33N 36°27' E 024°55'1111.5
2014-Jul-12 01:33N 36°30' E 025°09'1010.4
2014-Jul-12 00:33N 36°34' E 025°21'  

Dump ship's entire track history